Latest Coastal Weather Observations for Kingfish B

IDV60701

Issued at 7:25 am EST Wednesday 3 September 2014 (issued every 10 minutes, with the page automatically refreshed every 10 minutes)

About coastal observations | Map of coastal stations | Coastal observations for VIC | Marine services | Other Formats
Station Details ID: 400139 Name: KINGFISH B (PLATFORM) Lat: -38.60 Lon: 148.19 Height: 31.4 m
Data from the previous 72 hours. | See also: Recent months for locations in Victoria
Date/Time
EST
Temp

°C
Wind Pressure Rain
since 9am
mm
Weather Cloud Vis
km
Sea
Height
m
Swell
Dir
 
Speed
knots
Gust
knots
hPa Trend Height
m
Period
s
Dir
03/06:10am 11.7 S 12 16 1020.6 - - - - - - - - -
03/06:00am 11.6 S 13 16 1020.5 - - - - - - - - -
03/05:50am 11.6 S 14 16 1020.4 - - - - - - - - -
03/05:40am 11.6 S 13 18 1020.3 - - - - - - - - -
03/05:30am 11.6 S 13 18 1020.2 - - - - - - - - -
03/05:20am 11.7 S 12 16 1020.1 - - - - - - - - -
03/05:10am 11.7 S 12 17 1020.0 - - - - - - - - -
03/05:00am 11.6 SSE 12 15 1020.0 - - - - - - - - -
03/04:50am 11.7 SSE 12 16 1019.9 - - - - - - - - -
03/04:40am 11.6 SSE 12 17 1019.7 - - - - - - - - -
03/04:30am 11.7 SSE 13 17 1019.7 - - - - - - - - -
03/04:20am 11.7 SSE 13 17 1019.6 - - - - - - - - -
03/04:10am 11.7 SSE 12 16 1019.5 - - - - - - - - -
03/04:00am 11.8 SSE 13 18 1019.4 - - - - - - - - -
03/03:50am 11.8 SSE 14 18 1019.3 - - - - - - - - -
03/03:40am 11.9 SSE 13 18 1019.1 - - - - - - - - -
03/03:30am 11.9 SSE 15 19 1019.1 - - - - - - - - -
03/03:20am 12.0 S 14 17 1019.0 - - - - - - - - -
03/03:10am 11.9 S 15 18 1019.0 - - - - - - - - -
03/03:00am 12.0 S 15 18 1018.8 - - - - - - - - -
03/02:50am 12.0 SSE 14 18 1018.8 - - - - - - - - -
03/02:40am 12.0 S 14 18 1018.7 - - - - - - - - -
03/02:30am 12.0 S 14 17 1018.7 - - - - - - - - -
03/02:20am 12.0 S 14 19 1018.7 - - - - - - - - -
03/02:10am 11.9 S 13 17 1018.6 - - - - - - - - -
03/02:00am 11.9 S 13 17 1018.5 - - - - - - - - -
03/01:50am 11.9 S 14 17 1018.5 - - - - - - - - -
03/01:40am 11.7 S 11 17 1018.4 - - - - - - - - -
03/01:20am 12.0 S 17 29 1019.0 - - - - - - - - -
03/01:10am 12.0 SSW 21 26 1019.1 - - - - - - - - -
03/01:00am 11.5 S 16 29 1019.1 - - - - - - - - -
03/12:50am 11.0 SSE 9 16 1018.9 - - - - - - - - -
03/12:40am 11.4 SSE 18 29 1019.3 - - - - - - - - -
03/12:30am 12.4 S 14 23 1019.2 - - - - - - - - -
03/12:20am 12.9 SSW 14 17 1019.1 - - - - - - - - -
03/12:10am 12.9 SSW 14 17 1019.2 - - - - - - - - -
03/12:00am 13.0 SSW 15 19 1019.3 - - - - - - - - -
 
Date/Time
EST
Temp

°C
Wind Pressure Rain
since 9am
mm
Weather Cloud Vis
km
Sea
Height
m
Swell
Dir
 
Speed
knots
Gust
knots
hPa Trend Height
m
Period
s
Dir
02/11:50pm 12.7 SSW 14 18 1019.4 - - - - - - - - -
02/11:40pm 12.7 SSW 15 17 1019.4 - - - - - - - - -
02/11:30pm 12.6 SSW 14 16 1019.4 - - - - - - - - -
02/11:10pm 12.5 SSW 14 18 1019.4 - - - - - - - - -
02/11:00pm 12.4 SSW 14 18 1019.5 - - - - - - - - -
02/10:50pm 12.3 SSW 14 18 1019.6 - - - - - - - - -
02/10:40pm 12.4 SSW 15 17 1019.7 - - - - - - - - -
02/10:30pm 12.3 SSW 15 18 1019.8 - - - - - - - - -
02/10:20pm 12.2 SSW 14 17 1019.8 - - - - - - - - -
02/10:10pm 12.2 SSW 14 18 1019.9 - - - - - - - - -
02/10:00pm 12.3 SSW 16 18 1019.8 - - - - - - - - -
02/09:50pm 12.2 SSW 15 19 1019.9 - - - - - - - - -
02/09:40pm 12.2 SSW 16 19 1019.9 - - - - - - - - -
02/09:30pm 12.1 SSW 15 18 1019.9 - - - - - - - - -
02/09:20pm 11.9 SSW 16 19 1020.1 - - - - - - - - -
02/09:10pm 11.9 SSW 14 17 1020.0 - - - - - - - - -
02/09:00pm 11.9 SSW 15 18 1020.1 - - - - - - - - -
02/08:50pm 11.9 SSW 15 19 1020.0 - - - - - - - - -
02/08:40pm 11.9 S 16 20 1020.1 - - - - - - - - -
02/08:30pm 12.0 S 18 22 1020.2 - - - - - - - - -
02/08:20pm 12.0 S 18 21 1020.2 - - - - - - - - -
02/08:10pm 12.0 SSW 18 21 1020.3 - - - - - - - - -
02/08:00pm 12.0 SSW 19 22 1020.3 - - - - - - - - -
02/07:50pm 12.0 SSW 19 23 1020.2 - - - - - - - - -
02/07:40pm 11.9 S 18 21 1020.1 - - - - - - - - -
02/07:30pm 12.1 SSW 19 22 1020.0 - - - - - - - - -
02/07:20pm 12.2 SSW 20 22 1020.0 - - - - - - - - -
02/07:10pm 12.1 S 19 23 1019.9 - - - - - - - - -
02/07:00pm 12.1 S 19 21 1019.7 - - - - - - - - -
02/06:50pm 12.2 S 18 21 1019.6 - - - - - - - - -
02/06:40pm 12.1 S 19 22 1019.6 - - - - - - - - -
02/06:30pm 11.8 S 16 22 1019.3 - - - - - - - - -
02/06:20pm 11.9 S 17 24 1019.3 - - - - - - - - -
02/06:10pm 11.7 S 17 27 1019.3 - - - - - - - - -
02/06:00pm 12.2 S 18 23 1019.3 - - - - - - - - -
02/05:50pm 12.2 S 18 22 1019.1 - - - - - - - - -
02/05:40pm 12.2 S 18 22 1019.0 - - - - - - - - -
02/05:30pm 12.2 S 18 23 1018.9 - - - - - - - - -
02/05:20pm 12.3 S 18 23 1018.8 - - - - - - - - -
02/05:10pm 12.3 SSE 17 21 1018.6 - - - - - - - - -
02/05:00pm 12.4 SSE 16 21 1018.5 - - - - - - - - -
02/04:50pm 12.4 SSE 17 21 1018.4 - - - - - - - - -
02/04:40pm 12.4 SSE 17 22 1018.2 - - - - - - - - -
02/04:30pm 12.4 SSE 19 23 1018.2 - - - - - - - - -
02/04:20pm 12.5 SSE 20 24 1018.1 - - - - - - - - -
02/04:00pm 12.4 SSE 21 27 1017.9 - - - - - - - - -
02/03:50pm 12.4 S 23 27 1017.8 - - - - - - - - -
02/03:40pm 12.4 SSE 23 29 1017.6 - - - - - - - - -
02/03:30pm 12.4 SSE 23 29 1017.5 - - - - - - - - -
02/03:20pm 12.4 S 24 29 1017.5 - - - - - - - - -
02/03:10pm 12.4 S 25 30 1017.4 - - - - - - - - -
02/03:00pm 12.3 S 26 29 1017.3 - - - - - - - - -
02/02:50pm 12.4 S 26 31 1017.2 - - - - - - - - -
02/02:40pm 12.4 SSE 26 30 1017.0 - - - - - - - - -
02/02:30pm 12.4 S 27 31 1017.0 - - - - - - - - -
02/02:20pm 12.4 S 26 31 1016.8 - - - - - - - - -
02/02:10pm 12.4 S 28 31 1016.9 - - - - - - - - -
02/02:00pm 12.4 S 26 32 1016.6 - - - - - - - - -
02/01:50pm 12.4 S 28 32 1016.5 - - - - - - - - -
02/01:40pm 12.4 SSE 28 33 1016.3 - - - - - - - - -
02/01:30pm 12.4 SSE 27 33 1016.2 - - - - - - - - -
02/01:20pm 12.3 SSE 29 34 1016.2 - - - - - - - - -
02/01:10pm 12.3 SSE 29 33 1016.1 - - - - - - - - -
02/01:00pm 12.3 SSE 28 34 1015.9 - - - - - - - - -
02/12:50pm 12.4 SSE 28 34 1015.8 - - - - - - - - -
02/12:40pm 12.3 SSE 27 33 1015.7 - - - - - - - - -
02/12:30pm 12.1 S 26 32 1015.7 - - - - - - - - -
02/12:20pm 12.3 SSE 27 31 1015.6 - - - - - - - - -
02/12:10pm 12.4 SSE 27 33 1015.5 - - - - - - - - -
02/12:00pm 12.3 SSE 28 34 1015.5 - - - - - - - - -
02/11:50am 12.3 SSE 29 35 1015.5 - - - - - - - - -
02/11:40am 12.3 S 27 33 1015.4 - - - - - - - - -
02/11:30am 12.6 SSE 27 33 1015.3 - - - - - - - - -
02/11:20am 12.5 SSE 28 34 1015.3 - - - - - - - - -
02/11:10am 12.5 SSE 28 34 1015.2 - - - - - - - - -
02/11:00am 12.1 SSE 30 35 1015.3 - - - - - - - - -
02/10:50am 12.0 S 25 31 1015.0 - - - - - - - - -
02/10:40am 11.8 S 28 31 1015.2 - - - - - - - - -
02/10:30am 11.5 S 28 33 1015.1 - - - - - - - - -
02/10:20am 11.8 SSE 26 33 1014.6 - - - - - - - - -
02/10:10am 12.1 SSE 27 32 1014.8 - - - - - - - - -
02/10:00am 11.2 SSE 23 29 1014.5 - - - - - - - - -
02/09:40am 10.4 SSE 28 33 1014.8 - - - - - - - - -
02/09:30am 11.1 SSE 29 37 1014.8 - - - - - - - - -
02/09:20am 11.4 SSE 26 33 1014.3 - - - - - - - - -
02/09:10am 11.9 SSE 28 35 1014.5 - - - - - - - - -
02/09:00am 12.3 SSE 29 34 1014.4 - - - - - - - - -
02/08:50am 12.3 SSE 26 33 1014.1 - - - - - - - - -
02/08:40am 12.1 SSE 25 31 1014.0 - - - - - - - - -
02/08:30am 11.7 SSE 22 30 1013.6 - - - - - - - - -
02/08:20am 11.6 SSE 28 38 1014.0 - - - - - - - - -
02/08:10am 12.4 SSE 26 33 1013.8 - - - - - - - - -
02/08:00am 12.4 SSE 24 30 1013.5 - - - - - - - - -
02/07:50am 12.1 SSE 23 30 1013.0 - - - - - - - - -
02/07:40am 11.7 SSE 24 33 1013.2 - - - - - - - - -
02/07:30am 11.3 S 23 33 1013.4 - - - - - - - - -
02/07:20am 11.0 S 18 29 1013.2 - - - - - - - - -
02/07:10am 12.1 S 18 26 1012.9 - - - - - - - - -
02/07:00am 11.8 S 21 27 1013.0 - - - - - - - - -
02/06:50am 11.7 SSW 19 25 1012.8 - - - - - - - - -
02/06:40am 11.2 SSW 17 23 1012.7 - - - - - - - - -
02/06:30am 10.8 S 16 21 1012.6 - - - - - - - - -
02/06:20am 10.2 S 20 25 1012.6 - - - - - - - - -
02/06:10am 10.2 S 28 35 1013.2 - - - - - - - - -
02/06:00am 10.2 S 31 38 1013.1 - - - - - - - - -
02/05:50am 10.7 S 34 41 1012.9 - - - - - - - - -
02/05:40am 11.5 SSE 26 32 1011.8 - - - - - - - - -
02/05:30am 11.3 SSE 26 30 1011.5 - - - - - - - - -
02/05:10am 11.4 SSE 26 31 1011.0 - - - - - - - - -
02/05:00am 11.2 SSE 27 32 1010.8 - - - - - - - - -
02/04:50am 11.2 SSE 18 24 1010.5 - - - - - - - - -
02/04:40am 11.4 SSE 19 24 1010.4 - - - - - - - - -
02/04:30am 11.8 SSE 20 27 1010.4 - - - - - - - - -
02/04:20am 12.1 S 20 24 1010.3 - - - - - - - - -
02/04:10am 11.9 S 18 22 1010.0 - - - - - - - - -
02/04:00am 12.4 S 18 21 1009.8 - - - - - - - - -
02/03:50am 12.9 SSW 15 18 1009.5 - - - - - - - - -
02/03:40am 13.1 SSW 15 18 1009.2 - - - - - - - - -
02/03:30am 13.3 SSW 14 17 1009.0 - - - - - - - - -
02/03:20am 13.2 SSW 15 17 1009.0 - - - - - - - - -
02/03:10am 13.2 SSW 16 19 1009.2 - - - - - - - - -
02/03:00am 13.2 SW 17 20 1009.0 - - - - - - - - -
02/02:50am 13.1 SW 18 21 1008.9 - - - - - - - - -
02/02:40am 13.0 SW 18 21 1008.8 - - - - - - - - -
02/02:30am 13.0 SW 17 19 1008.8 - - - - - - - - -
02/02:20am 13.0 SW 16 20 1008.8 - - - - - - - - -
02/02:10am 13.1 SW 17 19 1008.7 - - - - - - - - -
02/02:00am 13.0 SW 17 20 1008.7 - - - - - - - - -
02/01:50am 13.0 SW 17 20 1008.9 - - - - - - - - -
02/01:40am 13.0 SW 18 20 1008.7 - - - - - - - - -
02/01:20am 13.0 SW 18 21 1008.8 - - - - - - - - -
02/01:10am 13.1 SW 19 23 1008.6 - - - - - - - - -
02/01:00am 13.3 SW 20 24 1008.8 - - - - - - - - -
02/12:50am 13.3 SW 20 24 1008.7 - - - - - - - - -
02/12:40am 13.3 SW 20 24 1008.7 - - - - - - - - -
02/12:30am 13.2 SW 18 22 1008.7 - - - - - - - - -
02/12:20am 13.2 SW 19 22 1008.6 - - - - - - - - -
02/12:10am 13.2 SW 18 22 1008.8 - - - - - - - - -
02/12:00am 13.1 SW 18 22 1008.7 - - - - - - - - -
 
Date/Time
EST
Temp

°C
Wind Pressure Rain
since 9am
mm
Weather Cloud Vis
km
Sea
Height
m
Swell
Dir
 
Speed
knots
Gust
knots
hPa Trend Height
m
Period
s
Dir
01/11:50pm 13.1 SW 21 24 1008.5 - - - - - - - - -
01/11:40pm 13.1 SW 20 24 1008.5 - - - - - - - - -
01/11:30pm 13.2 SW 18 21 1008.6 - - - - - - - - -
01/11:20pm 13.2 SW 19 23 1008.7 - - - - - - - - -
01/11:10pm 13.2 SW 19 24 1008.7 - - - - - - - - -
01/11:00pm 13.5 SW 16 20 1008.7 - - - - - - - - -
01/10:50pm 13.7 WSW 13 17 1008.8 - - - - - - - - -
01/10:40pm 13.6 WSW 15 18 1008.7 - - - - - - - - -
01/10:30pm 13.7 SW 15 18 1008.7 - - - - - - - - -
01/10:20pm 13.9 WSW 15 20 1008.7 - - - - - - - - -
01/10:10pm 14.3 WSW 15 19 1008.6 - - - - - - - - -
01/10:00pm 13.8 WSW 15 19 1008.7 - - - - - - - - -
01/09:50pm 13.8 WSW 14 17 1008.7 - - - - - - - - -
01/09:40pm 13.8 WSW 13 16 1008.7 - - - - - - - - -
01/09:30pm 14.0 WSW 14 17 1008.7 - - - - - - - - -
01/09:20pm 13.8 WSW 14 16 1008.6 - - - - - - - - -
01/09:10pm 13.9 WSW 14 16 1008.6 - - - - - - - - -
01/09:00pm 13.8 WSW 16 20 1008.6 - - - - - - - - -
01/08:50pm 14.0 WSW 18 21 1008.5 - - - - - - - - -
01/08:20pm 14.3 W 15 18 1008.4 - - - - - - - - -
01/08:10pm 14.3 W 13 16 1008.6 - - - - - - - - -
01/08:00pm 14.3 W 13 16 1008.6 - - - - - - - - -
01/07:50pm 14.4 WSW 13 16 1008.7 - - - - - - - - -
01/07:40pm 14.5 WSW 14 17 1008.7 - - - - - - - - -
01/07:30pm 14.4 WSW 14 17 1008.6 - - - - - - - - -
01/07:20pm 14.4 WSW 15 18 1008.7 - - - - - - - - -
01/07:10pm 14.3 WSW 14 17 1008.7 - - - - - - - - -
01/07:00pm 14.4 WSW 12 15 1008.7 - - - - - - - - -
01/06:50pm 14.4 WSW 15 19 1008.7 - - - - - - - - -
01/06:40pm 14.4 WSW 14 17 1008.6 - - - - - - - - -
01/06:30pm 14.5 WSW 14 17 1008.6 - - - - - - - - -
01/06:20pm 14.4 WSW 15 18 1008.4 - - - - - - - - -
01/06:10pm 14.2 WSW 15 19 1008.1 - - - - - - - - -
01/06:00pm 14.1 WSW 16 20 1008.0 - - - - - - - - -
01/05:40pm 14.0 WSW 16 19 1007.9 - - - - - - - - -
01/05:30pm 14.1 WSW 17 20 1007.8 - - - - - - - - -
01/05:20pm 14.2 WSW 19 23 1007.7 - - - - - - - - -
01/05:10pm 14.3 WSW 22 27 1007.4 - - - - - - - - -
01/05:00pm 14.3 WSW 24 27 1007.0 - - - - - - - - -
01/04:50pm 14.3 WSW 25 31 1006.7 - - - - - - - - -
01/04:40pm 14.4 WSW 27 33 1006.3 - - - - - - - - -
01/04:30pm 14.5 SW 25 31 1006.4 - - - - - - - - -
01/04:20pm 14.7 SW 22 28 1006.6 - - - - - - - - -
01/04:10pm 14.8 SW 23 29 1006.4 - - - - - - - - -
01/04:00pm 14.9 SW 24 28 1006.2 - - - - - - - - -
01/03:40pm 15.1 SW 18 24 1006.3 - - - - - - - - -
01/03:30pm 15.3 SW 15 19 1006.4 - - - - - - - - -
01/03:20pm 15.7 SSW 17 21 1006.6 - - - - - - - - -
01/03:10pm 16.0 SSW 20 25 1006.7 - - - - - - - - -
01/03:00pm 16.2 SSW 19 25 1006.7 - - - - - - - - -
01/02:50pm 15.8 SSW 13 22 1006.6 - - - - - - - - -
01/02:40pm 16.0 SSW 13 15 1006.6 - - - - - - - - -
01/02:30pm 16.6 SSW 11 13 1006.4 - - - - - - - - -
01/02:20pm 17.3 SSW 12 14 1006.2 - - - - - - - - -
01/02:10pm 18.0 WSW 11 15 1005.9 - - - - - - - - -
01/02:00pm 18.0 W 12 21 1005.8 - - - - - - - - -
01/01:50pm 18.1 NNW 15 18 1005.3 - - - - - - - - -
01/01:40pm 17.8 NNW 17 19 1005.1 - - - - - - - - -
01/01:30pm 17.6 N 14 18 1005.0 - - - - - - - - -
01/01:20pm 17.8 N 13 15 1005.0 - - - - - - - - -
01/01:10pm 18.0 N 14 16 1005.0 - - - - - - - - -
01/01:00pm 17.9 N 16 18 1005.1 - - - - - - - - -
01/12:50pm 17.8 N 14 18 1005.3 - - - - - - - - -
01/12:40pm 17.7 - 16 19 1005.4 - - - - - - - - -
01/12:30pm 17.7 N 15 18 1005.5 - - - - - - - - -
01/12:20pm 18.0 - 17 20 1005.7 - - - - - - - - -
01/12:00pm 17.5 - 19 22 1005.8 - - - - - - - - -
01/11:50am 17.4 N 20 22 1005.9 - - - - - - - - -
01/11:40am 17.7 N 19 22 1006.2 - - - - - - - - -
01/11:30am 17.8 N 18 21 1006.6 - - - - - - - - -
01/11:20am 17.8 N 17 20 1006.9 - - - - - - - - -
01/11:10am 17.8 NNW 16 21 1007.3 - - - - - - - - -
01/11:00am 17.3 NW 14 20 1007.6 - - - - - - - - -
01/10:50am 17.0 NNW 12 15 1007.7 - - - - - - - - -
01/10:40am 17.3 NW 12 15 1008.0 - - - - - - - - -
01/10:30am 17.3 NW 13 16 1008.1 - - - - - - - - -
01/10:20am 17.4 NW 14 16 1008.2 - - - - - - - - -
01/10:10am 17.5 NW 17 19 1008.3 - - - - - - - - -
01/10:00am 17.3 NW 18 21 1008.4 - - - - - - - - -
01/09:50am 17.0 NNW 14 19 1008.4 - - - - - - - - -
01/09:40am 17.0 NNW 18 23 1008.4 - - - - - - - - -
01/09:30am 16.7 N 18 22 1008.3 - - - - - - - - -
01/09:20am 16.5 NNW 17 21 1008.5 - - - - - - - - -
01/09:10am 16.7 N 14 18 1008.5 - - - - - - - - -
01/09:00am 16.9 NNW 15 18 1008.7 - - - - - - - - -
01/08:50am 17.0 NNW 16 19 1008.7 - - - - - - - - -
01/08:40am 17.0 NNW 18 22 1008.7 - - - - - - - - -
01/08:30am 16.8 N 16 20 1008.7 - - - - - - - - -
01/08:20am 16.6 N 15 17 1008.8 - - - - - - - - -
01/08:10am 16.7 NNW 16 19 1009.0 - - - - - - - - -
01/08:00am 16.5 NNW 16 19 1009.0 - - - - - - - - -
01/07:50am 16.5 N 17 20 1008.9 - - - - - - - - -
01/07:40am 16.5 N 18 20 1009.0 - - - - - - - - -
01/07:30am 16.5 N 17 19 1009.1 - - - - - - - - -
01/07:20am 16.4 NNW 15 19 1009.4 - - - - - - - - -
01/07:10am 16.3 N 15 17 1009.5 - - - - - - - - -
01/07:00am 16.1 N 15 17 1009.6 - - - - - - - - -
01/06:50am 16.1 N 15 17 1009.6 - - - - - - - - -
01/06:40am 16.1 N 15 16 1009.7 - - - - - - - - -
01/06:30am 16.1 N 15 17 1009.7 - - - - - - - - -
01/06:20am 16.0 N 14 16 1009.8 - - - - - - - - -
01/06:00am 15.8 N 14 16 1009.9 - - - - - - - - -
01/05:50am 15.8 N 14 16 1010.0 - - - - - - - - -
01/05:30am 15.7 N 14 16 1010.0 - - - - - - - - -
01/03:40am 15.8 N 12 15 1010.3 - - - - - - - - -
01/03:30am 15.7 N 12 15 1010.3 - - - - - - - - -
01/03:20am 15.6 N 13 16 1010.2 - - - - - - - - -
01/03:10am 15.5 N 13 16 1010.3 - - - - - - - - -
01/03:00am 15.7 N 13 15 1010.3 - - - - - - - - -
01/02:50am 15.8 N 14 16 1010.4 - - - - - - - - -
01/02:40am 16.0 N 14 17 1010.3 - - - - - - - - -
01/02:30am 16.0 N 16 18 1010.1 - - - - - - - - -
01/02:10am 15.7 - 15 19 1010.1 - - - - - - - - -
01/02:00am 15.7 N 14 15 1010.2 - - - - - - - - -
01/01:50am 15.7 - 13 15 1010.4 - - - - - - - - -
01/01:40am 15.8 N 14 16 1010.5 - - - - - - - - -
01/01:30am 15.8 N 13 15 1010.7 - - - - - - - - -
01/01:20am 15.8 N 13 15 1010.9 - - - - - - - - -
01/01:10am 15.8 N 14 16 1011.0 - - - - - - - - -
01/01:00am 15.7 N 13 15 1011.2 - - - - - - - - -
01/12:50am 15.6 - 13 15 1011.3 - - - - - - - - -
01/12:40am 15.5 N 12 14 1011.6 - - - - - - - - -
01/12:30am 15.4 N 13 14 1011.6 - - - - - - - - -
01/12:20am 15.3 N 11 13 1011.8 - - - - - - - - -
01/12:00am 15.3 - 10 12 1012.1 - - - - - - - - -
 
Date/Time
EST
Temp

°C
Wind Pressure Rain
since 9am
mm
Weather Cloud Vis
km
Sea
Height
m
Swell
Dir
 
Speed
knots
Gust
knots
hPa Trend Height
m
Period
s
Dir
31/11:50pm 15.3 N 10 11 1012.3 - - - - - - - - -
31/11:40pm 15.4 N 10 11 1012.4 - - - - - - - - -
31/11:30pm 15.5 N 10 11 1012.5 - - - - - - - - -
31/11:20pm 15.5 N 10 11 1012.7 - - - - - - - - -
31/11:10pm 15.6 N 10 11 1012.8 - - - - - - - - -
31/11:00pm 15.4 N 11 13 1012.8 - - - - - - - - -
31/10:50pm 15.4 N 12 13 1012.9 - - - - - - - - -
31/10:40pm 15.4 N 12 13 1013.1 - - - - - - - - -
31/10:30pm 15.4 N 13 14 1013.1 - - - - - - - - -
31/10:10pm 15.4 NNE 12 14 1013.2 - - - - - - - - -
31/10:00pm 15.3 NNE 13 14 1013.3 - - - - - - - - -
31/09:50pm 15.3 NNE 13 14 1013.4 - - - - - - - - -
31/09:40pm 15.3 NNE 12 15 1013.6 - - - - - - - - -
31/09:30pm 15.4 NNE 12 13 1013.7 - - - - - - - - -
31/09:20pm 15.9 NNE 12 14 1013.8 - - - - - - - - -
31/09:10pm 15.4 NNE 12 14 1014.0 - - - - - - - - -
31/09:00pm 15.3 NNE 12 13 1014.1 - - - - - - - - -
31/08:50pm 15.2 NNE 12 14 1014.1 - - - - - - - - -
31/08:40pm 15.3 NNE 12 13 1014.2 - - - - - - - - -
31/08:30pm 15.3 NNE 12 13 1014.3 - - - - - - - - -
31/08:20pm 15.4 NNE 12 13 1014.3 - - - - - - - - -
31/08:10pm 15.3 NNE 12 13 1014.3 - - - - - - - - -
31/08:00pm 15.3 NNE 12 13 1014.4 - - - - - - - - -
31/07:50pm 15.3 NNE 12 13 1014.5 - - - - - - - - -
31/07:40pm 15.4 NNE 12 13 1014.5 - - - - - - - - -
31/07:30pm 15.4 NNE 12 13 1014.6 - - - - - - - - -
31/07:20pm 15.3 NNE 11 12 1014.6 - - - - - - - - -
31/07:10pm 15.3 NNE 11 12 1014.7 - - - - - - - - -
31/07:00pm 15.3 NNE 10 12 1014.8 - - - - - - - - -
31/06:50pm 15.3 NNE 10 11 1014.8 - - - - - - - - -
31/06:40pm 15.3 NNE 11 12 1014.8 - - - - - - - - -
31/06:10pm 15.2 NE 9 9 1014.9 - - - - - - - - -
31/06:00pm 15.1 NNE 8 9 1015.0 - - - - - - - - -
31/05:50pm 15.1 NE 8 9 1015.0 - - - - - - - - -
31/05:40pm 15.1 NNE 8 9 1015.0 - - - - - - - - -
31/05:30pm 15.0 NE 8 9 1014.9 - - - - - - - - -
31/05:20pm 14.9 NE 8 8 1014.9 - - - - - - - - -
31/05:10pm 14.9 NNE 7 8 1014.8 - - - - - - - - -
31/05:00pm 14.9 NNE 7 8 1014.8 - - - - - - - - -
31/04:50pm 15.0 NNE 6 8 1014.9 - - - - - - - - -
31/04:40pm 15.0 NNE 6 7 1014.9 - - - - - - - - -
31/04:30pm 15.0 NNE 6 7 1014.9 - - - - - - - - -
31/04:20pm 15.0 NNE 7 7 1014.9 - - - - - - - - -
31/04:10pm 15.0 NNE 6 7 1014.9 - - - - - - - - -
31/04:00pm 15.0 NNE 4 6 1015.0 - - - - - - - - -
31/03:50pm 15.0 NNE 5 6 1015.0 - - - - - - - - -
31/03:40pm 15.0 NNE 5 6 1014.9 - - - - - - - - -
31/03:30pm 14.8 NNE 5 6 1015.0 - - - - - - - - -
31/03:20pm 14.7 NNE 5 5 1015.1 - - - - - - - - -
31/03:10pm 14.7 NNE 4 4 1015.1 - - - - - - - - -
31/02:50pm 14.7 NNE 5 5 1015.3 - - - - - - - - -
31/02:40pm 14.4 NNE 4 5 1015.5 - - - - - - - - -
31/02:30pm 14.3 NNE 3 4 1015.5 - - - - - - - - -
31/02:20pm 14.3 NNE 2 3 1015.6 - - - - - - - - -
31/02:10pm 14.2 NNE 2 3 1015.6 - - - - - - - - -
31/02:00pm 14.2 NNE 3 4 1015.7 - - - - - - - - -
31/01:50pm 14.3 NNE 3 4 1015.8 - - - - - - - - -
31/01:40pm 14.3 NNE 4 5 1015.8 - - - - - - - - -
31/01:30pm 14.3 NNE 4 5 1015.8 - - - - - - - - -
31/01:20pm 14.2 NNE 4 5 1015.8 - - - - - - - - -
31/01:10pm 14.2 NNE 3 4 1016.0 - - - - - - - - -
31/01:00pm 14.2 NNE 3 4 1016.2 - - - - - - - - -
31/12:50pm 14.2 NNE 3 4 1016.4 - - - - - - - - -
31/12:40pm 14.1 NNE 2 3 1016.4 - - - - - - - - -
31/12:30pm 14.0 NNE 2 4 1016.6 - - - - - - - - -
31/12:20pm 14.0 NNE 2 5 1016.7 - - - - - - - - -
31/12:10pm 14.0 N 2 4 1016.9 - - - - - - - - -
31/12:00pm 14.1 N 2 5 1017.0 - - - - - - - - -
31/11:50am 14.3 N 2 5 1017.1 - - - - - - - - -
31/11:30am 14.3 N 1 4 1017.5 - - - - - - - - -
31/11:20am 14.5 NNW 2 4 1017.7 - - - - - - - - -
31/11:10am 14.5 NNW 2 5 1017.8 - - - - - - - - -
31/11:00am 14.5 NNW 2 5 1018.0 - - - - - - - - -
31/10:50am 14.3 NNW 2 5 1018.1 - - - - - - - - -
31/10:40am 14.3 N 2 5 1018.2 - - - - - - - - -
31/10:30am 14.4 N 2 4 1018.4 - - - - - - - - -
31/10:20am 14.5 N 2 5 1018.5 - - - - - - - - -
31/10:10am 14.7 N 2 5 1018.6 - - - - - - - - -
31/10:00am 14.9 NNW 1 4 1018.7 - - - - - - - - -
31/09:50am 14.8 NW 2 3 1018.9 - - - - - - - - -
31/09:40am 14.9 NW 2 3 1019.0 - - - - - - - - -
31/09:30am 14.9 NW 1 3 1019.1 - - - - - - - - -
31/09:20am 14.8 NW 3 5 1019.1 - - - - - - - - -
31/09:10am 15.0 NW 3 4 1019.2 - - - - - - - - -
31/09:00am 15.1 NW 3 5 1019.2 - - - - - - - - -
31/08:50am 15.0 NW 4 5 1019.3 - - - - - - - - -
31/08:40am 15.0 NW 4 5 1019.4 - - - - - - - - -
31/08:30am 15.3 NW 3 5 1019.5 - - - - - - - - -
31/08:20am 15.4 NW 4 5 1019.6 - - - - - - - - -
31/08:10am 15.4 NW 4 5 1019.7 - - - - - - - - -
31/08:00am 15.4 NNW 4 5 1019.7 - - - - - - - - -
31/07:50am 15.3 NNW 4 6 1019.8 - - - - - - - - -
31/07:40am 14.8 NNW 4 5 1019.9 - - - - - - - - -
31/07:30am 14.5 NNW 3 6 1019.8 - - - - - - - - -

Other Formats:

Comma delimited format used in spreadsheet applications
http://www.bom.gov.au/fwo/IDV60701/IDV60701.55039.axf

JavaScript Object Notation format (JSON) in row-major order
http://www.bom.gov.au/fwo/IDV60701/IDV60701.55039.json